createdAt,value
2019-03-28T00:02:03.191Z,12.80
2019-03-28T00:07:52.233Z,12.90
2019-03-28T00:10:33.359Z,12.77
2019-03-28T00:13:14.767Z,12.43
2019-03-28T00:15:55.778Z,12.80
2019-03-28T00:18:36.757Z,12.63
2019-03-28T00:21:18.077Z,12.87
2019-03-28T00:26:54.318Z,12.77
2019-03-28T00:29:34.840Z,13.40
2019-03-28T00:32:16.195Z,12.83
2019-03-28T00:34:56.136Z,13.67
2019-03-28T00:37:44.688Z,13.07
2019-03-28T00:46:35.451Z,13.57
2019-03-28T00:55:25.899Z,13.23
2019-03-28T00:58:14.463Z,13.43
2019-03-28T01:04:10.686Z,14.00
2019-03-28T01:10:05.796Z,12.97
2019-03-28T01:12:54.395Z,12.97
2019-03-28T01:15:43.001Z,12.50
2019-03-28T01:18:33.252Z,12.37
2019-03-28T01:21:21.796Z,12.60
2019-03-28T01:24:03.380Z,13.32
2019-03-28T01:26:51.893Z,12.53
2019-03-28T01:29:26.620Z,13.67
2019-03-28T01:32:07.238Z,12.40
2019-03-28T01:34:48.744Z,12.97
2019-03-28T01:37:29.942Z,12.30
2019-03-28T01:40:10.792Z,13.10
2019-03-28T01:42:51.400Z,12.13
2019-03-28T01:45:33.256Z,12.40
2019-03-28T01:48:14.760Z,12.70
2019-03-28T01:50:55.632Z,11.00
2019-03-28T01:53:36.377Z,12.37
2019-03-28T01:56:17.002Z,11.60
2019-03-28T01:58:57.953Z,11.00
2019-03-28T02:01:39.446Z,11.07
2019-03-28T02:04:19.143Z,12.40
2019-03-28T02:15:49.529Z,10.50
2019-03-28T02:18:38.157Z,13.48
2019-03-28T02:21:27.315Z,12.47
2019-03-28T02:24:10.225Z,13.10
2019-03-28T02:26:51.281Z,12.63
2019-03-28T02:29:33.166Z,13.70
2019-03-28T02:32:14.671Z,12.45
2019-03-28T02:34:56.074Z,12.60
2019-03-28T02:37:36.780Z,12.77
2019-03-28T02:40:17.492Z,12.90
2019-03-28T02:46:06.581Z,13.03
2019-03-28T02:48:47.759Z,11.73
2019-03-28T02:51:29.061Z,12.18
2019-03-28T02:54:10.678Z,11.20
2019-03-28T02:56:51.434Z,11.33
2019-03-28T02:59:32.712Z,12.83
2019-03-28T03:02:13.635Z,12.70
2019-03-28T03:04:54.863Z,12.60
2019-03-28T03:07:35.766Z,11.77
2019-03-28T03:10:17.580Z,12.43
2019-03-28T03:12:58.341Z,12.23
2019-03-28T03:18:57.924Z,13.00
2019-03-28T03:21:39.042Z,12.30
2019-03-28T03:24:20.132Z,11.12
2019-03-28T03:27:01.600Z,12.30
2019-03-28T03:29:42.486Z,14.03
2019-03-28T03:32:23.344Z,11.60
2019-03-28T03:35:04.251Z,12.57
2019-03-28T03:41:04.719Z,11.83
2019-03-28T03:43:44.294Z,11.07
2019-03-28T03:46:32.843Z,12.00
2019-03-28T03:49:21.443Z,11.77
2019-03-28T03:52:10.079Z,12.70
2019-03-28T04:01:00.114Z,11.00
2019-03-28T04:03:48.641Z,10.60
2019-03-28T04:06:29.648Z,12.13
2019-03-28T04:09:11.107Z,11.63
2019-03-28T04:11:51.808Z,12.23
2019-03-28T04:14:32.486Z,11.10
2019-03-28T04:17:13.554Z,10.90
2019-03-28T04:19:54.966Z,10.13
2019-03-28T04:22:36.920Z,11.93
2019-03-28T04:25:18.501Z,11.80
2019-03-28T04:30:42.041Z,10.80
2019-03-28T04:33:22.888Z,10.50
2019-03-28T04:36:03.834Z,12.43
2019-03-28T04:38:44.711Z,33.90
2019-03-28T04:41:25.781Z,25.60
2019-03-28T04:44:07.067Z,17.53
2019-03-28T04:46:47.761Z,15.00
2019-03-28T04:49:28.830Z,19.43
2019-03-28T04:52:10.068Z,14.73
2019-03-28T04:54:51.242Z,13.83
2019-03-28T05:00:51.359Z,15.10
2019-03-28T05:03:32.140Z,14.95
2019-03-28T05:06:13.534Z,14.13
2019-03-28T05:08:54.175Z,14.40
2019-03-28T05:11:34.746Z,14.03
2019-03-28T05:14:15.898Z,12.67
2019-03-28T05:16:57.177Z,13.90
2019-03-28T05:19:36.857Z,12.97
2019-03-28T05:22:17.952Z,15.20
2019-03-28T05:24:58.726Z,11.73
2019-03-28T05:27:40.091Z,12.27
2019-03-28T05:30:20.768Z,11.80
2019-03-28T05:33:01.580Z,11.30
2019-03-28T05:35:42.529Z,12.63
2019-03-28T05:38:23.460Z,10.77
2019-03-28T05:41:04.841Z,13.20
2019-03-28T05:43:45.952Z,13.27
2019-03-28T05:46:27.086Z,12.30
2019-03-28T05:49:08.077Z,11.47
2019-03-28T05:51:48.640Z,13.50
2019-03-28T05:57:37.848Z,12.80
2019-03-28T06:00:18.922Z,11.30
2019-03-28T06:03:00.396Z,12.90
2019-03-28T06:05:41.365Z,12.28
2019-03-28T06:08:22.040Z,12.57
2019-03-28T06:11:03.268Z,12.77
2019-03-28T06:16:27.113Z,13.43
2019-03-28T06:19:08.323Z,12.83
2019-03-28T06:21:49.057Z,13.80
2019-03-28T06:24:29.874Z,12.57
2019-03-28T06:27:10.722Z,13.00
2019-03-28T06:29:52.487Z,12.90
2019-03-28T06:32:42.706Z,11.33
2019-03-28T06:35:16.275Z,11.60
2019-03-28T06:37:58.451Z,11.23
2019-03-28T06:40:39.374Z,12.20
2019-03-28T06:43:20.159Z,11.27
2019-03-28T06:46:01.208Z,12.20
2019-03-28T06:48:42.535Z,11.57
2019-03-28T06:51:23.656Z,12.50
2019-03-28T06:54:04.508Z,11.17
2019-03-28T06:56:46.056Z,12.73
2019-03-28T06:59:37.209Z,12.83
2019-03-28T07:02:10.304Z,11.80
2019-03-28T07:04:51.532Z,12.60
2019-03-28T07:10:51.150Z,10.80
2019-03-28T07:13:32.442Z,10.60
2019-03-28T07:16:13.932Z,12.30
2019-03-28T07:18:55.006Z,11.80
2019-03-28T07:21:36.098Z,11.22
2019-03-28T07:24:16.710Z,12.67
2019-03-28T07:26:57.778Z,11.53
2019-03-28T07:29:50.290Z,11.43
2019-03-28T07:32:21.346Z,10.63
2019-03-28T07:35:02.803Z,10.53
2019-03-28T07:37:43.365Z,11.03
2019-03-28T07:43:43.240Z,11.33
2019-03-28T07:46:24.364Z,11.00
2019-03-28T07:49:05.383Z,9.70
2019-03-28T07:51:45.992Z,10.03
2019-03-28T07:54:27.294Z,9.40
2019-03-28T07:57:08.315Z,9.20
2019-03-28T07:59:49.363Z,11.07
2019-03-28T08:02:30.520Z,9.27
2019-03-28T08:05:11.260Z,9.30
2019-03-28T08:07:52.674Z,8.50
2019-03-28T08:10:33.762Z,8.57
2019-03-28T08:13:15.075Z,8.60
2019-03-28T08:15:55.879Z,9.30
2019-03-28T08:18:36.923Z,9.03
2019-03-28T08:21:17.878Z,14.23
2019-03-28T08:26:40.798Z,9.47
2019-03-28T08:29:21.616Z,9.30
2019-03-28T08:32:04.162Z,10.00
2019-03-28T08:34:44.989Z,10.00
2019-03-28T08:37:25.991Z,11.40
2019-03-28T08:40:07.471Z,13.13
2019-03-28T08:42:48.833Z,11.60
2019-03-28T08:45:30.302Z,10.57
2019-03-28T08:48:11.198Z,9.70
2019-03-28T08:50:52.515Z,10.08
2019-03-28T08:53:33.950Z,11.30
2019-03-28T08:56:14.908Z,12.23
2019-03-28T08:58:44.738Z,12.13
2019-03-28T09:07:34.916Z,11.73
2019-03-28T09:13:31.234Z,14.00
2019-03-28T09:16:19.783Z,13.40
2019-03-28T09:22:16.055Z,11.63
2019-03-28T09:31:19.331Z,11.40
2019-03-28T09:33:57.387Z,11.67
2019-03-28T09:36:45.999Z,10.67
2019-03-28T09:48:16.714Z,11.13
2019-03-28T09:50:57.480Z,8.73
2019-03-28T09:53:38.448Z,8.05
2019-03-28T09:56:19.217Z,9.23
2019-03-28T09:59:00.441Z,10.80
2019-03-28T10:01:41.110Z,9.63
2019-03-28T10:04:21.624Z,8.87
2019-03-28T10:07:02.844Z,11.07
2019-03-28T10:09:44.390Z,10.97
2019-03-28T10:12:25.635Z,10.67
2019-03-28T10:15:06.508Z,10.10
2019-03-28T10:17:47.246Z,10.37
2019-03-28T10:20:28.306Z,10.75
2019-03-28T10:23:09.455Z,9.87
2019-03-28T10:25:50.929Z,9.60
2019-03-28T10:28:32.066Z,11.33
2019-03-28T10:31:16.773Z,32.73
2019-03-28T10:33:55.781Z,9.70
2019-03-28T10:36:37.298Z,8.70
2019-03-28T10:39:18.465Z,8.87
2019-03-28T10:41:59.110Z,10.40
2019-03-28T10:44:39.927Z,5.60
2019-03-28T10:47:19.675Z,6.83
2019-03-28T10:50:08.373Z,11.53
2019-03-28T10:52:56.889Z,2.90
2019-03-28T11:01:48.003Z,9.17
2019-03-28T11:04:24.445Z,4.90
2019-03-28T11:07:13.036Z,4.60
2019-03-28T11:10:01.657Z,4.47
2019-03-28T11:12:50.301Z,5.33
2019-03-28T11:15:38.876Z,2.97
2019-03-28T11:18:27.530Z,4.08
2019-03-28T11:21:16.162Z,4.40
2019-03-28T11:24:04.796Z,4.53
2019-03-28T11:26:53.415Z,3.53
2019-03-28T11:32:27.986Z,2.80
2019-03-28T11:35:09.054Z,3.00
2019-03-28T11:37:50.205Z,3.12
2019-03-28T11:40:31.414Z,3.23
2019-03-28T11:43:12.633Z,2.80
2019-03-28T11:45:54.133Z,3.40
2019-03-28T11:48:34.955Z,3.13
2019-03-28T11:51:15.559Z,3.23
2019-03-28T11:53:56.103Z,3.30
2019-03-28T11:56:36.999Z,2.43
2019-03-28T12:02:25.240Z,3.67
2019-03-28T12:05:05.732Z,3.22
2019-03-28T12:07:46.843Z,2.90
2019-03-28T12:10:27.822Z,3.33
2019-03-28T12:13:08.878Z,3.30
2019-03-28T12:15:50.870Z,3.43
2019-03-28T12:18:32.235Z,3.60
2019-03-28T12:21:13.224Z,3.50
2019-03-28T12:23:54.406Z,3.40
2019-03-28T12:26:35.271Z,3.27
2019-03-28T12:29:16.286Z,3.03
2019-03-28T12:31:57.372Z,3.00
2019-03-28T12:34:38.292Z,3.43
2019-03-28T12:37:19.155Z,3.00
2019-03-28T12:40:00.607Z,2.63
2019-03-28T12:42:41.478Z,2.20
2019-03-28T12:45:22.349Z,2.57
2019-03-28T12:48:02.963Z,2.87
2019-03-28T12:50:43.865Z,2.40
2019-03-28T12:53:25.359Z,2.77
2019-03-28T12:56:06.287Z,2.37
2019-03-28T12:58:47.222Z,1.87
2019-03-28T13:01:27.977Z,3.37
2019-03-28T13:04:09.407Z,3.27
2019-03-28T13:06:50.071Z,2.33
2019-03-28T13:09:31.014Z,3.20
2019-03-28T13:12:12.095Z,3.03
2019-03-28T13:14:53.619Z,2.70
2019-03-28T13:17:34.968Z,2.63
2019-03-28T13:26:29.154Z,2.80
2019-03-28T13:29:10.271Z,3.67
2019-03-28T13:31:51.137Z,3.70
2019-03-28T13:34:32.341Z,2.80
2019-03-28T13:37:13.706Z,3.13
2019-03-28T13:39:54.727Z,2.65
2019-03-28T13:42:36.046Z,3.00
2019-03-28T13:45:16.984Z,2.77
2019-03-28T13:51:15.800Z,2.60
2019-03-28T13:53:56.737Z,2.80
2019-03-28T13:56:38.633Z,2.97
2019-03-28T13:59:19.961Z,3.53
2019-03-28T14:02:01.309Z,3.50
2019-03-28T14:04:42.056Z,2.17
2019-03-28T14:07:23.192Z,2.40
2019-03-28T14:10:04.175Z,2.60
2019-03-28T14:12:44.796Z,2.83
2019-03-28T14:15:26.087Z,3.30
2019-03-28T14:18:06.707Z,3.30
2019-03-28T14:20:47.279Z,2.57
2019-03-28T14:23:27.878Z,3.27
2019-03-28T14:26:08.437Z,3.07
2019-03-28T14:28:50.444Z,3.33
2019-03-28T14:31:31.279Z,3.07
2019-03-28T14:34:12.032Z,3.60
2019-03-28T14:36:51.795Z,3.60
2019-03-28T14:39:33.297Z,3.80
2019-03-28T14:42:15.189Z,3.30
2019-03-28T14:44:56.671Z,2.87
2019-03-28T14:47:38.157Z,3.70
2019-03-28T14:50:18.793Z,3.63
2019-03-28T14:52:59.745Z,4.30
2019-03-28T14:55:41.224Z,4.17
2019-03-28T14:58:22.186Z,5.83
2019-03-28T15:01:03.578Z,4.30
2019-03-28T15:03:44.253Z,5.03
2019-03-28T15:06:24.882Z,5.40
2019-03-28T15:09:07.933Z,5.50
2019-03-28T15:11:47.563Z,5.23
2019-03-28T15:17:30.316Z,5.70
2019-03-28T15:20:18.857Z,5.93
2019-03-28T15:28:55.914Z,5.97
2019-03-28T15:34:38.169Z,6.20
2019-03-28T15:37:26.736Z,6.00
2019-03-28T15:40:15.519Z,8.13
2019-03-28T15:43:04.091Z,7.57
2019-03-28T15:45:52.665Z,8.00
2019-03-28T15:51:28.719Z,16.03
2019-03-28T15:54:10.191Z,8.00
2019-03-28T15:56:51.581Z,5.40
2019-03-28T15:59:32.701Z,6.47
2019-03-28T16:04:56.180Z,8.00
2019-03-28T16:07:36.812Z,7.33
2019-03-28T16:10:17.620Z,7.20
2019-03-28T16:12:58.498Z,8.27
2019-03-28T16:15:39.881Z,8.73
2019-03-28T16:18:21.127Z,7.60
2019-03-28T16:21:01.972Z,7.87
2019-03-28T16:23:42.724Z,6.80
2019-03-28T16:26:23.272Z,9.80
2019-03-28T16:29:04.406Z,7.83
2019-03-28T16:31:44.984Z,8.80
2019-03-28T16:34:26.129Z,8.00
2019-03-28T16:37:06.601Z,6.73
2019-03-28T16:39:50.073Z,7.53
2019-03-28T16:42:30.716Z,8.27
2019-03-28T16:45:11.989Z,6.97
2019-03-28T16:47:53.490Z,8.33
2019-03-28T16:50:34.375Z,6.63
2019-03-28T16:53:15.785Z,9.10
2019-03-28T16:55:56.300Z,7.10
2019-03-28T16:58:37.847Z,9.27
2019-03-28T17:01:18.764Z,7.80
2019-03-28T17:04:00.118Z,8.50
2019-03-28T17:06:40.785Z,8.00
2019-03-28T17:09:21.513Z,9.10
2019-03-28T17:12:02.295Z,20.53
2019-03-28T17:14:43.683Z,18.40
2019-03-28T17:17:24.574Z,10.60
2019-03-28T17:20:05.988Z,18.60
2019-03-28T17:22:46.994Z,22.23
2019-03-28T17:25:28.302Z,28.00
2019-03-28T17:28:08.834Z,23.93
2019-03-28T17:30:50.010Z,23.97
2019-03-28T17:33:31.894Z,48.30
2019-03-28T17:36:13.446Z,47.93
2019-03-28T17:38:54.696Z,34.73
2019-03-28T17:41:35.515Z,43.57
2019-03-28T17:44:16.164Z,56.90
2019-03-28T17:46:57.028Z,55.17
2019-03-28T17:49:38.178Z,34.47
2019-03-28T17:52:19.163Z,35.87
2019-03-28T17:55:00.031Z,26.63
2019-03-28T17:57:41.531Z,46.77
2019-03-28T18:00:22.108Z,43.00
2019-03-28T18:03:08.935Z,31.07
2019-03-28T18:05:57.475Z,26.17
2019-03-28T18:08:28.736Z,34.37
2019-03-28T18:11:08.527Z,32.30
2019-03-28T18:17:04.785Z,21.90
2019-03-28T18:28:50.291Z,10.70
2019-03-28T18:31:49.722Z,10.60
2019-03-28T18:37:36.790Z,9.13
2019-03-28T18:46:15.014Z,8.40
2019-03-28T18:48:57.565Z,10.13
2019-03-28T18:51:39.093Z,8.57
2019-03-28T18:54:20.433Z,8.93
2019-03-28T18:57:03.303Z,9.10
2019-03-28T18:59:44.953Z,9.47
2019-03-28T19:02:25.655Z,8.57
2019-03-28T19:05:19.072Z,8.87
2019-03-28T19:07:48.896Z,9.53
2019-03-28T19:10:30.006Z,9.57
2019-03-28T19:13:18.832Z,8.67
2019-03-28T19:21:57.574Z,8.23
2019-03-28T19:24:47.208Z,8.83
2019-03-28T19:27:30.242Z,9.50
2019-03-28T19:30:10.954Z,8.10
2019-03-28T19:32:51.997Z,8.93
2019-03-28T19:35:33.506Z,7.73
2019-03-28T19:38:15.120Z,8.37
2019-03-28T19:41:15.442Z,7.90
2019-03-28T19:43:56.830Z,7.93
2019-03-28T19:46:37.762Z,8.87
2019-03-28T19:52:22.832Z,8.60
2019-03-28T19:55:03.725Z,8.07
2019-03-28T19:57:45.334Z,8.33
2019-03-28T20:00:26.755Z,9.93
2019-03-28T20:03:07.804Z,9.07
2019-03-28T20:05:50.078Z,7.83
2019-03-28T20:08:31.588Z,8.37
2019-03-28T20:11:12.330Z,9.15
2019-03-28T20:13:53.129Z,7.93
2019-03-28T20:16:34.314Z,7.70
2019-03-28T20:19:17.720Z,8.97
2019-03-28T20:21:59.496Z,8.27
2019-03-28T20:24:40.103Z,8.93
2019-03-28T20:27:22.967Z,8.20
2019-03-28T20:30:04.417Z,9.60
2019-03-28T20:32:45.536Z,9.40
2019-03-28T20:35:26.763Z,9.83
2019-03-28T20:38:07.460Z,9.70
2019-03-28T20:40:47.999Z,10.30
2019-03-28T20:46:34.152Z,8.70
2019-03-28T20:49:15.411Z,9.35
2019-03-28T20:52:15.150Z,9.67
2019-03-28T20:54:55.682Z,10.93
2019-03-28T20:57:40.222Z,9.23
2019-03-28T21:00:19.746Z,10.03
2019-03-28T21:03:03.181Z,10.37
2019-03-28T21:05:43.853Z,8.67
2019-03-28T21:08:25.030Z,9.07
2019-03-28T21:11:06.321Z,9.83
2019-03-28T21:13:47.685Z,9.10
2019-03-28T21:25:13.107Z,9.40
2019-03-28T21:28:01.637Z,8.80
2019-03-28T21:33:44.708Z,9.77
2019-03-28T21:36:33.255Z,8.55
2019-03-28T21:39:21.821Z,7.80
2019-03-28T21:42:01.461Z,8.00
2019-03-28T21:44:50.086Z,8.17
2019-03-28T21:47:38.730Z,7.47
2019-03-28T21:50:27.665Z,8.37
2019-03-28T22:02:51.060Z,7.73
2019-03-28T22:05:40.641Z,7.40
2019-03-28T22:08:29.371Z,7.90
2019-03-28T22:17:27.393Z,8.73
2019-03-28T22:26:40.352Z,7.80
2019-03-28T22:29:21.076Z,8.03
2019-03-28T22:32:01.947Z,8.70
2019-03-28T22:34:43.041Z,9.67
2019-03-28T22:37:24.533Z,8.48
2019-03-28T22:43:24.654Z,7.80
2019-03-28T22:46:05.568Z,8.13
2019-03-28T22:48:46.658Z,8.70
2019-03-28T22:51:27.262Z,7.47
2019-03-28T22:54:08.144Z,6.90
2019-03-28T22:56:50.001Z,7.50
2019-03-28T22:59:31.619Z,7.45
2019-03-28T23:02:12.685Z,8.88
2019-03-28T23:04:53.578Z,8.13
2019-03-28T23:10:42.933Z,8.90
2019-03-28T23:13:24.356Z,7.90
2019-03-28T23:16:05.117Z,7.70
2019-03-28T23:18:46.232Z,6.77
2019-03-28T23:21:26.805Z,6.23
2019-03-28T23:24:07.717Z,8.30
2019-03-28T23:26:48.167Z,7.67
2019-03-28T23:29:29.551Z,7.00
2019-03-28T23:32:10.017Z,7.77
2019-03-28T23:34:51.455Z,6.10
2019-03-28T23:37:32.812Z,7.53
2019-03-28T23:43:21.796Z,7.70
2019-03-28T23:46:03.116Z,8.03
2019-03-28T23:48:43.887Z,7.00
2019-03-28T23:51:24.891Z,6.00
2019-03-28T23:54:06.207Z,6.60
2019-03-28T23:56:47.752Z,6.97
